createdAt,value
2016-03-16T00:00:50.544Z,1016.28
2016-03-16T00:01:50.562Z,1016.3
2016-03-16T00:02:50.581Z,1016.32
2016-03-16T00:03:50.583Z,1016.33
2016-03-16T00:04:50.633Z,1016.35
2016-03-16T00:05:50.619Z,1016.34
2016-03-16T00:06:50.638Z,1016.39
2016-03-16T00:07:50.655Z,1016.34
2016-03-16T00:08:50.674Z,1016.38
2016-03-16T00:09:50.693Z,1016.38
2016-03-16T00:10:50.696Z,1016.38
2016-03-16T00:11:50.714Z,1016.33
2016-03-16T00:12:50.732Z,1016.36
2016-03-16T00:13:50.750Z,1016.35
2016-03-16T00:14:50.785Z,1016.36
2016-03-16T00:15:50.788Z,1016.35
2016-03-16T00:16:50.805Z,1016.35
2016-03-16T00:17:50.824Z,1016.38
2016-03-16T00:18:50.826Z,1016.39
2016-03-16T00:19:50.836Z,1016.41
2016-03-16T00:20:50.842Z,1016.39
2016-03-16T00:21:50.848Z,1016.4
2016-03-16T00:22:50.854Z,1016.39
2016-03-16T00:23:50.861Z,1016.39
2016-03-16T00:24:50.874Z,1016.42
2016-03-16T00:25:50.872Z,1016.43
2016-03-16T00:26:50.886Z,1016.48
2016-03-16T00:27:50.916Z,1016.44
2016-03-16T00:28:50.915Z,1016.47
2016-03-16T00:29:50.930Z,1016.45
2016-03-16T00:30:50.951Z,1016.41
2016-03-16T00:31:50.967Z,1016.4
2016-03-16T00:32:50.969Z,1016.45
2016-03-16T00:33:50.985Z,1016.44
2016-03-16T00:34:51.004Z,1016.47
2016-03-16T00:35:51.021Z,1016.47
2016-03-16T00:36:51.040Z,1016.45
2016-03-16T00:37:51.057Z,1016.47
2016-03-16T00:38:51.091Z,1016.49
2016-03-16T00:39:51.077Z,1016.47
2016-03-16T00:40:51.096Z,1016.5
2016-03-16T00:41:51.113Z,1016.5
2016-03-16T00:42:51.147Z,1016.48
2016-03-16T00:43:51.150Z,1016.52
2016-03-16T00:44:51.167Z,1016.52
2016-03-16T00:45:51.186Z,1016.54
2016-03-16T00:46:51.188Z,1016.49
2016-03-16T00:47:51.206Z,1016.49
2016-03-16T00:48:51.225Z,1016.51
2016-03-16T00:49:51.244Z,1016.49
2016-03-16T00:50:51.261Z,1016.5
2016-03-16T00:51:51.280Z,1016.46
2016-03-16T00:52:51.299Z,1016.51
2016-03-16T00:53:51.301Z,1016.46
2016-03-16T00:54:51.319Z,1016.5
2016-03-16T00:55:51.338Z,1016.51
2016-03-16T00:56:51.355Z,1016.49
2016-03-16T00:57:51.374Z,1016.48
2016-03-16T00:58:51.394Z,1016.5
2016-03-16T00:59:51.411Z,1016.47
2016-03-16T01:00:51.430Z,1016.49
2016-03-16T01:01:51.432Z,1016.44
2016-03-16T01:02:51.451Z,1016.48
2016-03-16T01:03:51.469Z,1016.43
2016-03-16T01:04:51.488Z,1016.46
2016-03-16T01:05:51.505Z,1016.46
2016-03-16T01:06:51.524Z,1016.42
2016-03-16T01:07:51.546Z,1016.38
2016-03-16T01:08:51.549Z,1016.4
2016-03-16T01:09:51.566Z,1016.43
2016-03-16T01:10:51.584Z,1016.43
2016-03-16T01:11:51.602Z,1016.43
2016-03-16T01:12:51.621Z,1016.36
2016-03-16T01:13:51.628Z,1016.39
2016-03-16T01:14:51.647Z,1016.35
2016-03-16T01:15:51.665Z,1016.4
2016-03-16T01:16:51.683Z,1016.4
2016-03-16T01:17:51.702Z,1016.44
2016-03-16T01:18:51.720Z,1016.37
2016-03-16T01:19:51.723Z,1016.37
2016-03-16T01:20:51.741Z,1016.38
2016-03-16T01:21:51.760Z,1016.4
2016-03-16T01:22:51.794Z,1016.43
2016-03-16T01:23:51.797Z,1016.43
2016-03-16T01:24:51.815Z,1016.45
2016-03-16T01:25:51.833Z,1016.48
2016-03-16T01:26:51.836Z,1016.47
2016-03-16T01:27:51.854Z,1016.49
2016-03-16T01:28:51.872Z,1016.46
2016-03-16T01:29:51.891Z,1016.49
2016-03-16T01:30:51.908Z,1016.47
2016-03-16T01:31:51.927Z,1016.48
2016-03-16T01:32:51.946Z,1016.48
2016-03-16T01:33:51.964Z,1016.51
2016-03-16T01:34:51.966Z,1016.55
2016-03-16T01:35:51.985Z,1016.49
2016-03-16T01:36:52.003Z,1016.49
2016-03-16T01:37:52.022Z,1016.48
2016-03-16T01:38:52.040Z,1016.52
2016-03-16T01:39:52.058Z,1016.5
2016-03-16T01:40:52.077Z,1016.47
2016-03-16T01:41:52.079Z,1016.45
2016-03-16T01:42:52.098Z,1016.45
2016-03-16T01:43:52.115Z,1016.43
2016-03-16T01:44:52.134Z,1016.42
2016-03-16T01:45:52.152Z,1016.39
2016-03-16T01:46:52.170Z,1016.41
2016-03-16T01:47:52.189Z,1016.45
2016-03-16T01:48:52.207Z,1016.47
2016-03-16T01:49:52.210Z,1016.48
2016-03-16T01:50:52.228Z,1016.45
2016-03-16T01:51:52.247Z,1016.51
2016-03-16T01:52:52.265Z,1016.49
2016-03-16T01:53:52.284Z,1016.49
2016-03-16T01:54:52.301Z,1016.48
2016-03-16T01:55:52.304Z,1016.52
2016-03-16T01:56:52.323Z,1016.51
2016-03-16T01:57:52.342Z,1016.52
2016-03-16T01:58:52.359Z,1016.53
2016-03-16T01:59:52.378Z,1016.52
2016-03-16T02:00:52.397Z,1016.48
2016-03-16T02:01:52.414Z,1016.5
2016-03-16T02:02:52.433Z,1016.48
2016-03-16T02:03:52.436Z,1016.53
2016-03-16T02:04:52.453Z,1016.54
2016-03-16T02:05:52.472Z,1016.54
2016-03-16T02:06:52.490Z,1016.59
2016-03-16T02:07:52.507Z,1016.62
2016-03-16T02:08:52.526Z,1016.57
2016-03-16T02:09:52.545Z,1016.58
2016-03-16T02:10:52.547Z,1016.58
2016-03-16T02:11:52.565Z,1016.58
2016-03-16T02:12:52.584Z,1016.59
2016-03-16T02:13:52.603Z,1016.61
2016-03-16T02:14:52.620Z,1016.59
2016-03-16T02:15:52.638Z,1016.56
2016-03-16T02:16:52.657Z,1016.57
2016-03-16T02:17:52.659Z,1016.55
2016-03-16T02:18:52.678Z,1016.56
2016-03-16T02:19:52.696Z,1016.55
2016-03-16T02:20:52.716Z,1016.52
2016-03-16T02:21:52.734Z,1016.59
2016-03-16T02:22:52.752Z,1016.56
2016-03-16T02:23:52.754Z,1016.6
2016-03-16T02:24:52.773Z,1016.61
2016-03-16T02:25:52.792Z,1016.63
2016-03-16T02:26:52.809Z,1016.65
2016-03-16T02:27:52.828Z,1016.65
2016-03-16T02:28:52.846Z,1016.72
2016-03-16T02:29:52.850Z,1016.7
2016-03-16T02:30:52.867Z,1016.7
2016-03-16T02:31:52.886Z,1016.71
2016-03-16T02:32:52.904Z,1016.68
2016-03-16T02:33:52.922Z,1016.67
2016-03-16T02:34:52.941Z,1016.71
2016-03-16T02:35:52.959Z,1016.74
2016-03-16T02:36:52.962Z,1016.72
2016-03-16T02:37:52.980Z,1016.73
2016-03-16T02:38:52.999Z,1016.68
2016-03-16T02:39:53.016Z,1016.72
2016-03-16T02:40:53.035Z,1016.7
2016-03-16T02:41:53.053Z,1016.75
2016-03-16T02:42:53.072Z,1016.73
2016-03-16T02:43:53.074Z,1016.77
2016-03-16T02:44:53.093Z,1016.74
2016-03-16T02:45:53.110Z,1016.75
2016-03-16T02:46:53.129Z,1016.75
2016-03-16T02:47:53.147Z,1016.78
2016-03-16T02:48:53.166Z,1016.82
2016-03-16T02:49:53.168Z,1016.8
2016-03-16T02:50:53.187Z,1016.81
2016-03-16T02:51:53.204Z,1016.87
2016-03-16T02:52:53.223Z,1016.82
2016-03-16T02:53:53.242Z,1016.83
2016-03-16T02:54:53.260Z,1016.82
2016-03-16T02:55:53.263Z,1016.86
2016-03-16T02:56:53.281Z,1016.91
2016-03-16T02:57:53.300Z,1016.86
2016-03-16T02:58:53.317Z,1016.87
2016-03-16T02:59:53.336Z,1016.88
2016-03-16T03:00:53.354Z,1016.89
2016-03-16T03:01:53.389Z,1016.91
2016-03-16T03:02:53.375Z,1016.92
2016-03-16T03:03:53.393Z,1016.95
2016-03-16T03:04:53.411Z,1016.96
2016-03-16T03:05:53.430Z,1016.98
2016-03-16T03:06:53.449Z,1017.02
2016-03-16T03:07:53.466Z,1017
2016-03-16T03:08:53.485Z,1017.01
2016-03-16T03:09:53.488Z,1017
2016-03-16T03:10:53.506Z,1017.01
2016-03-16T03:11:53.524Z,1016.96
2016-03-16T03:12:53.543Z,1016.97
2016-03-16T03:13:53.561Z,1016.94
2016-03-16T03:14:53.580Z,1016.91
2016-03-16T03:15:53.582Z,1016.91
2016-03-16T03:16:53.600Z,1016.92
2016-03-16T03:17:53.635Z,1016.86
2016-03-16T03:18:53.637Z,1016.88
2016-03-16T03:19:53.655Z,1016.86
2016-03-16T03:20:53.674Z,1016.87
2016-03-16T03:21:53.692Z,1016.85
2016-03-16T03:22:53.695Z,1016.9
2016-03-16T03:23:53.713Z,1016.86
2016-03-16T03:24:53.731Z,1016.85
2016-03-16T03:25:53.750Z,1016.89
2016-03-16T03:26:53.768Z,1016.88
2016-03-16T03:27:53.786Z,1016.86
2016-03-16T03:28:53.804Z,1016.84
2016-03-16T03:29:53.807Z,1016.85
2016-03-16T03:30:53.826Z,1016.93
2016-03-16T03:31:53.844Z,1016.86
2016-03-16T03:32:53.862Z,1016.87
2016-03-16T03:33:53.881Z,1016.83
2016-03-16T03:34:53.884Z,1016.85
2016-03-16T03:35:53.902Z,1016.87
2016-03-16T03:36:53.919Z,1016.87
2016-03-16T03:37:53.939Z,1016.93
2016-03-16T03:38:53.956Z,1016.97
2016-03-16T03:39:53.958Z,1016.91
2016-03-16T03:40:53.977Z,1016.89
2016-03-16T03:41:53.996Z,1016.93
2016-03-16T03:42:54.014Z,1016.9
2016-03-16T03:43:54.032Z,1016.9
2016-03-16T03:44:54.051Z,1016.94
2016-03-16T03:45:54.069Z,1016.92
2016-03-16T03:46:54.072Z,1016.92
2016-03-16T03:47:54.090Z,1016.93
2016-03-16T03:48:54.108Z,1016.9
2016-03-16T03:49:54.127Z,1016.9
2016-03-16T03:50:54.145Z,1016.95
2016-03-16T03:51:54.163Z,1016.98
2016-03-16T03:52:54.165Z,1016.94
2016-03-16T03:53:54.184Z,1017.01
2016-03-16T03:54:54.202Z,1016.96
2016-03-16T03:55:54.220Z,1016.99
2016-03-16T03:56:54.239Z,1017.02
2016-03-16T03:57:54.257Z,1017.05
2016-03-16T03:58:54.260Z,1017.06
2016-03-16T03:59:54.278Z,1017.01
2016-03-16T04:00:54.297Z,1017.04
2016-03-16T04:01:54.315Z,1017.08
2016-03-16T04:02:54.334Z,1017.05
2016-03-16T04:03:54.352Z,1017.05
2016-03-16T04:04:54.354Z,1017.03
2016-03-16T04:05:54.372Z,1017.05
2016-03-16T04:06:54.391Z,1017.05
2016-03-16T04:07:54.408Z,1017.07
2016-03-16T04:08:54.427Z,1017.06
2016-03-16T04:09:54.446Z,1017.05
2016-03-16T04:10:54.449Z,1017.05
2016-03-16T04:11:54.467Z,1017.04
2016-03-16T04:12:54.485Z,1017.06
2016-03-16T04:13:54.504Z,1017.02
2016-03-16T04:14:54.521Z,1017.04
2016-03-16T04:15:54.540Z,1017.01
2016-03-16T04:16:54.543Z,1017.03
2016-03-16T04:17:54.560Z,1017.08
2016-03-16T04:18:54.579Z,1017.09
2016-03-16T04:19:54.598Z,1017.09
2016-03-16T04:20:54.616Z,1017.05
2016-03-16T04:21:54.634Z,1017.11
2016-03-16T04:22:54.654Z,1017.12
2016-03-16T04:23:54.656Z,1017.12
2016-03-16T04:24:54.673Z,1017.1
2016-03-16T04:25:54.692Z,1017.13
2016-03-16T04:26:54.726Z,1017.15
2016-03-16T04:27:54.729Z,1017.14
2016-03-16T04:28:54.731Z,1017.14
2016-03-16T04:29:54.750Z,1017.18
2016-03-16T04:30:54.768Z,1017.15
2016-03-16T04:31:54.787Z,1017.18
2016-03-16T04:32:54.805Z,1017.17
2016-03-16T04:33:54.823Z,1017.19
2016-03-16T04:34:54.842Z,1017.17
2016-03-16T04:35:54.844Z,1017.13
2016-03-16T04:36:54.862Z,1017.21
2016-03-16T04:37:54.880Z,1017.19
2016-03-16T04:38:54.900Z,1017.19
2016-03-16T04:39:54.917Z,1017.23
2016-03-16T04:40:54.920Z,1017.27
2016-03-16T04:41:54.938Z,1017.23
2016-03-16T04:42:54.957Z,1017.25
2016-03-16T04:43:54.975Z,1017.26
2016-03-16T04:44:54.994Z,1017.27
2016-03-16T04:45:54.996Z,1017.31
2016-03-16T04:46:55.014Z,1017.29
2016-03-16T04:47:55.032Z,1017.33
2016-03-16T04:48:55.051Z,1017.35
2016-03-16T04:49:55.069Z,1017.35
2016-03-16T04:50:55.088Z,1017.35
2016-03-16T04:51:55.106Z,1017.36
2016-03-16T04:52:55.109Z,1017.39
2016-03-16T04:53:55.126Z,1017.41
2016-03-16T04:54:55.145Z,1017.42
2016-03-16T04:55:55.163Z,1017.44
2016-03-16T04:56:55.182Z,1017.38
2016-03-16T04:57:55.184Z,1017.41
2016-03-16T04:58:55.265Z,1017.42
2016-03-16T04:59:55.221Z,1017.48
2016-03-16T05:00:55.239Z,1017.44
2016-03-16T05:01:55.258Z,1017.43
2016-03-16T05:02:55.276Z,1017.46
2016-03-16T05:03:55.295Z,1017.48
2016-03-16T05:04:55.312Z,1017.48
2016-03-16T05:05:55.331Z,1017.53
2016-03-16T05:06:55.323Z,1017.55
2016-03-16T05:07:55.342Z,1017.58
2016-03-16T05:08:55.361Z,1017.58
2016-03-16T05:09:55.379Z,1017.54
2016-03-16T05:10:55.397Z,1017.59
2016-03-16T05:11:55.400Z,1017.54
2016-03-16T05:12:55.433Z,1017.56
2016-03-16T05:13:55.499Z,1017.53
2016-03-16T05:14:55.455Z,1017.49
2016-03-16T05:15:55.473Z,1017.48
2016-03-16T05:16:55.492Z,1017.5
2016-03-16T05:17:55.510Z,1017.48
2016-03-16T05:18:55.513Z,1017.47
2016-03-16T05:19:55.530Z,1017.47
2016-03-16T05:20:55.549Z,1017.46
2016-03-16T05:21:55.567Z,1017.45
2016-03-16T05:22:55.585Z,1017.48
2016-03-16T05:23:55.588Z,1017.47
2016-03-16T05:24:55.607Z,1017.46
2016-03-16T05:25:55.625Z,1017.46
2016-03-16T05:26:55.644Z,1017.44
2016-03-16T05:27:55.662Z,1017.49
2016-03-16T05:28:55.665Z,1017.43
2016-03-16T05:29:55.698Z,1017.46
2016-03-16T05:30:55.716Z,1017.47
2016-03-16T05:31:55.719Z,1017.47
2016-03-16T05:32:55.737Z,1017.54
2016-03-16T05:33:55.756Z,1017.49
2016-03-16T05:34:55.759Z,1017.55
2016-03-16T05:35:55.776Z,1017.49
2016-03-16T05:36:55.795Z,1017.51
2016-03-16T05:37:55.814Z,1017.53
2016-03-16T05:38:55.832Z,1017.56
2016-03-16T05:39:55.913Z,1017.55
2016-03-16T05:40:55.853Z,1017.6
2016-03-16T05:41:55.887Z,1017.63
2016-03-16T05:42:55.889Z,1017.62
2016-03-16T05:43:55.939Z,1017.66
2016-03-16T05:44:55.926Z,1017.64
2016-03-16T05:45:55.944Z,1017.67
2016-03-16T05:46:55.947Z,1017.68
2016-03-16T05:47:55.965Z,1017.71
2016-03-16T05:48:55.983Z,1017.74
2016-03-16T05:49:56.002Z,1017.69
2016-03-16T05:50:56.005Z,1017.65
2016-03-16T05:51:56.023Z,1017.74
2016-03-16T05:52:56.041Z,1017.73
2016-03-16T05:53:56.060Z,1017.7
2016-03-16T05:54:56.077Z,1017.69
2016-03-16T05:55:56.096Z,1017.76
2016-03-16T05:56:56.099Z,1017.71
2016-03-16T05:57:56.118Z,1017.66
2016-03-16T05:58:56.136Z,1017.77
2016-03-16T05:59:56.155Z,1017.75
2016-03-16T06:00:56.172Z,1017.76
2016-03-16T06:01:56.175Z,1017.74
2016-03-16T06:02:56.194Z,1017.78
2016-03-16T06:03:56.212Z,1017.79
2016-03-16T06:04:56.230Z,1017.8
2016-03-16T06:05:56.248Z,1017.83
2016-03-16T06:06:56.251Z,1017.86
2016-03-16T06:07:56.269Z,1017.88
2016-03-16T06:08:56.287Z,1017.89
2016-03-16T06:09:56.306Z,1017.89
2016-03-16T06:10:56.323Z,1017.92
2016-03-16T06:11:56.343Z,1017.92
2016-03-16T06:12:56.361Z,1017.92
2016-03-16T06:13:56.364Z,1017.93
2016-03-16T06:14:56.382Z,1017.93
2016-03-16T06:15:56.400Z,1017.94
2016-03-16T06:16:56.419Z,1017.98
2016-03-16T06:17:56.421Z,1017.97
2016-03-16T06:18:56.439Z,1018.01
2016-03-16T06:19:56.458Z,1018.02
2016-03-16T06:20:56.475Z,1018.06
2016-03-16T06:21:56.494Z,1018.04
2016-03-16T06:22:56.513Z,1018.06
2016-03-16T06:23:56.515Z,1018.07
2016-03-16T06:24:56.534Z,1018.11
2016-03-16T06:25:56.552Z,1018.07
2016-03-16T06:26:56.571Z,1018.12
2016-03-16T06:27:56.574Z,1018.11
2016-03-16T06:28:56.608Z,1018.13
2016-03-16T06:29:56.609Z,1018.08
2016-03-16T06:30:56.643Z,1018.1
2016-03-16T06:31:56.646Z,1018.1
2016-03-16T06:32:56.665Z,1018.06
2016-03-16T06:33:56.668Z,1018.06
2016-03-16T06:34:56.685Z,1018.05
2016-03-16T06:35:56.704Z,1018.09
2016-03-16T06:36:56.722Z,1018.12
2016-03-16T06:37:56.741Z,1018.14
2016-03-16T06:38:56.759Z,1018.1
2016-03-16T06:39:56.761Z,1018.13
2016-03-16T06:40:56.779Z,1018.1
2016-03-16T06:41:56.798Z,1018.11
2016-03-16T06:42:56.816Z,1018.07
2016-03-16T06:43:56.835Z,1018.09
2016-03-16T06:44:56.837Z,1018.12
2016-03-16T06:45:56.856Z,1018.14
2016-03-16T06:46:56.875Z,1018.07
2016-03-16T06:47:56.892Z,1018.09
2016-03-16T06:48:56.911Z,1018.09
2016-03-16T06:49:56.928Z,1018.12
2016-03-16T06:50:56.931Z,1018.1
2016-03-16T06:51:56.950Z,1018.1
2016-03-16T06:52:56.969Z,1018.11
2016-03-16T06:53:56.987Z,1018.1
2016-03-16T06:54:57.005Z,1018.16
2016-03-16T06:55:57.024Z,1018.16
2016-03-16T06:56:57.026Z,1018.17
2016-03-16T06:57:57.044Z,1018.13
2016-03-16T06:58:57.062Z,1018.08
2016-03-16T06:59:57.080Z,1018.08
2016-03-16T07:00:57.099Z,1018.13
2016-03-16T07:01:57.133Z,1018.02
2016-03-16T07:02:57.121Z,1018.03
2016-03-16T07:03:57.139Z,1018.03
2016-03-16T07:04:57.157Z,1018.08
2016-03-16T07:05:57.176Z,1018.07
2016-03-16T07:06:57.194Z,1018.09
2016-03-16T07:07:57.196Z,1018.07
2016-03-16T07:08:57.215Z,1018.09
2016-03-16T07:09:57.232Z,1018.2
2016-03-16T07:10:57.251Z,1018.15
2016-03-16T07:11:57.269Z,1018.13
2016-03-16T07:12:57.272Z,1018.09
2016-03-16T07:13:57.290Z,1018.15
2016-03-16T07:14:57.308Z,1018.1
2016-03-16T07:15:57.327Z,1018.1
2016-03-16T07:16:57.345Z,1018.05
2016-03-16T07:17:57.364Z,1018.15
2016-03-16T07:18:57.367Z,1018.12
2016-03-16T07:19:57.400Z,1018.11
2016-03-16T07:20:57.403Z,1018.15
2016-03-16T07:21:57.421Z,1018.13
2016-03-16T07:22:57.439Z,1018.14
2016-03-16T07:23:57.458Z,1018.09
2016-03-16T07:24:57.477Z,1018.12
2016-03-16T07:25:57.480Z,1018.13
2016-03-16T07:26:57.498Z,1018.17
2016-03-16T07:27:57.516Z,1018.09
2016-03-16T07:28:57.534Z,1018.15
2016-03-16T07:29:57.536Z,1018.13
2016-03-16T07:30:57.555Z,1018.21
2016-03-16T07:31:57.573Z,1018.2
2016-03-16T07:32:57.591Z,1018.17
2016-03-16T07:33:57.610Z,1018.17
2016-03-16T07:34:57.628Z,1018.2
2016-03-16T07:35:57.646Z,1018.17
2016-03-16T07:36:57.665Z,1018.22
2016-03-16T07:37:57.668Z,1018.18
2016-03-16T07:38:57.702Z,1018.31
2016-03-16T07:39:57.720Z,1018.3
2016-03-16T07:40:57.723Z,1018.25
2016-03-16T07:41:57.740Z,1018.2
2016-03-16T07:42:57.743Z,1018.26
2016-03-16T07:43:57.777Z,1018.23
2016-03-16T07:44:57.780Z,1018.14
2016-03-16T07:45:57.798Z,1018.16
2016-03-16T07:46:57.816Z,1018.2
2016-03-16T07:47:57.850Z,1018.23
2016-03-16T07:48:57.853Z,1018.23
2016-03-16T07:49:57.872Z,1018.17
2016-03-16T07:50:57.875Z,1018.18
2016-03-16T07:51:57.892Z,1018.18
2016-03-16T07:52:57.911Z,1018.17
2016-03-16T07:53:57.929Z,1018.21
2016-03-16T07:54:57.947Z,1018.25
2016-03-16T07:55:57.950Z,1018.24
2016-03-16T07:56:57.969Z,1018.25
2016-03-16T07:57:57.987Z,1018.26
2016-03-16T07:58:58.006Z,1018.33
2016-03-16T07:59:58.024Z,1018.33
2016-03-16T08:00:58.042Z,1018.3
2016-03-16T08:01:58.060Z,1018.32
2016-03-16T08:02:58.079Z,1018.37
2016-03-16T08:03:58.081Z,1018.4
2016-03-16T08:04:58.099Z,1018.37
2016-03-16T08:05:58.118Z,1018.41
2016-03-16T08:06:58.133Z,1018.46
2016-03-16T08:07:58.151Z,1018.42
2016-03-16T08:08:58.169Z,1018.47
2016-03-16T08:09:58.187Z,1018.47
2016-03-16T08:10:58.205Z,1018.49
2016-03-16T08:11:58.224Z,1018.51
2016-03-16T08:12:58.242Z,1018.47
2016-03-16T08:13:58.260Z,1018.5
2016-03-16T08:14:58.263Z,1018.46
2016-03-16T08:15:58.282Z,1018.44
2016-03-16T08:16:58.300Z,1018.52
2016-03-16T08:17:58.318Z,1018.49
2016-03-16T08:18:58.352Z,1018.5
2016-03-16T08:19:58.355Z,1018.47
2016-03-16T08:20:58.374Z,1018.54
2016-03-16T08:21:58.391Z,1018.54
2016-03-16T08:22:58.393Z,1018.54
2016-03-16T08:23:58.412Z,1018.53
2016-03-16T08:24:58.431Z,1018.47
2016-03-16T08:25:58.449Z,1018.52
2016-03-16T08:26:58.468Z,1018.49
2016-03-16T08:27:58.485Z,1018.53
2016-03-16T08:28:58.504Z,1018.49
2016-03-16T08:29:58.523Z,1018.53
2016-03-16T08:30:58.540Z,1018.55
2016-03-16T08:31:58.559Z,1018.54
2016-03-16T08:32:58.578Z,1018.51
2016-03-16T08:33:58.580Z,1018.51
2016-03-16T08:34:58.598Z,1018.52
2016-03-16T08:35:58.617Z,1018.51
2016-03-16T08:36:58.634Z,1018.56
2016-03-16T08:37:58.653Z,1018.51
2016-03-16T08:38:58.672Z,1018.53
2016-03-16T08:39:58.689Z,1018.53
2016-03-16T08:40:58.708Z,1018.54
2016-03-16T08:41:58.726Z,1018.53
2016-03-16T08:42:58.744Z,1018.57
2016-03-16T08:43:58.763Z,1018.48
2016-03-16T08:44:58.781Z,1018.52
2016-03-16T08:45:58.799Z,1018.53
2016-03-16T08:46:58.803Z,1018.54
2016-03-16T08:47:58.821Z,1018.51
2016-03-16T08:48:58.839Z,1018.62
2016-03-16T08:49:58.857Z,1018.51
2016-03-16T08:50:58.891Z,1018.55
2016-03-16T08:51:58.894Z,1018.54
2016-03-16T08:52:58.912Z,1018.52
2016-03-16T08:53:58.930Z,1018.53
2016-03-16T08:54:58.949Z,1018.56
2016-03-16T08:55:58.968Z,1018.57
2016-03-16T08:56:58.985Z,1018.47
2016-03-16T08:57:59.004Z,1018.61
2016-03-16T08:58:59.023Z,1018.62
2016-03-16T08:59:59.040Z,1018.63
2016-03-16T09:00:59.059Z,1018.68
2016-03-16T09:01:59.062Z,1018.67
2016-03-16T09:02:59.095Z,1018.64
2016-03-16T09:03:59.098Z,1018.66
2016-03-16T09:04:59.131Z,1018.65
2016-03-16T09:05:59.135Z,1018.69
2016-03-16T09:06:59.158Z,1018.69
2016-03-16T09:07:59.176Z,1018.66
2016-03-16T09:08:59.195Z,1018.71
2016-03-16T09:09:59.213Z,1018.67
2016-03-16T09:10:59.231Z,1018.64
2016-03-16T09:11:59.280Z,1018.82
2016-03-16T09:12:59.268Z,1018.75
2016-03-16T09:13:59.286Z,1018.8
2016-03-16T09:14:59.304Z,1018.81
2016-03-16T09:15:59.322Z,1018.88
2016-03-16T09:16:59.341Z,1018.84
2016-03-16T09:17:59.359Z,1018.83
2016-03-16T09:18:59.377Z,1018.77
2016-03-16T09:19:59.395Z,1018.84
2016-03-16T09:20:59.417Z,1018.85
2016-03-16T09:21:59.435Z,1018.87
2016-03-16T09:22:59.454Z,1018.79
2016-03-16T09:23:59.472Z,1018.89
2016-03-16T09:24:59.487Z,1018.83
2016-03-16T09:25:59.529Z,1018.8
2016-03-16T09:26:59.497Z,1018.88
2016-03-16T09:27:59.486Z,1018.85
2016-03-16T09:28:59.495Z,1018.85
2016-03-16T09:30:06.681Z,1018.84
2016-03-16T09:30:59.527Z,1018.88
2016-03-16T09:31:59.540Z,1018.89
2016-03-16T09:32:59.554Z,1018.83
2016-03-16T09:33:59.568Z,1018.86
2016-03-16T09:34:59.582Z,1018.88
2016-03-16T09:35:59.599Z,1018.87
2016-03-16T09:36:59.615Z,1018.9
2016-03-16T09:37:59.631Z,1018.95
2016-03-16T09:38:59.647Z,1018.94
2016-03-16T09:39:59.663Z,1018.94
2016-03-16T09:40:59.682Z,1018.97
2016-03-16T09:41:59.700Z,1018.98
2016-03-16T09:42:59.717Z,1018.95
2016-03-16T09:43:59.734Z,1018.99
2016-03-16T09:44:59.753Z,1018.96
2016-03-16T09:45:59.771Z,1018.97
2016-03-16T09:46:59.789Z,1018.97
2016-03-16T09:47:59.807Z,1018.96
2016-03-16T09:48:59.873Z,1018.99
2016-03-16T09:49:59.891Z,1018.89
2016-03-16T09:50:59.909Z,1018.9
2016-03-16T09:51:59.927Z,1018.9
2016-03-16T09:52:59.945Z,1018.92
2016-03-16T09:53:59.964Z,1018.89
2016-03-16T09:54:59.982Z,1018.96
2016-03-16T09:56:00.017Z,1018.9
2016-03-16T09:57:00.018Z,1018.92
2016-03-16T09:58:00.038Z,1019.01
2016-03-16T09:59:00.024Z,1018.96
2016-03-16T10:00:00.121Z,1018.89
2016-03-16T10:01:00.045Z,1018.91
2016-03-16T10:02:00.080Z,1018.9
2016-03-16T10:03:00.097Z,1018.97
2016-03-16T10:04:00.115Z,1018.95
2016-03-16T10:05:00.134Z,1018.95
2016-03-16T10:06:00.152Z,1018.99
2016-03-16T10:07:00.170Z,1018.98
2016-03-16T10:08:00.190Z,1018.94
2016-03-16T10:09:00.207Z,1018.88
2016-03-16T10:10:00.225Z,1018.91
2016-03-16T10:11:00.244Z,1018.87
2016-03-16T10:12:00.278Z,1018.9
2016-03-16T10:13:00.281Z,1018.92
2016-03-16T10:14:00.330Z,1018.97
2016-03-16T10:15:00.318Z,1019.01
2016-03-16T10:16:00.351Z,1018.99
2016-03-16T10:17:00.354Z,1019.03
2016-03-16T10:18:00.388Z,1019.03
2016-03-16T10:19:00.406Z,1019.01
2016-03-16T10:20:00.425Z,1019.04
2016-03-16T10:21:00.442Z,1019.07
2016-03-16T10:22:00.462Z,1019.1
2016-03-16T10:23:00.480Z,1019.03
2016-03-16T10:24:00.498Z,1019.01
2016-03-16T10:25:00.516Z,1019.02
2016-03-16T10:26:00.534Z,1019
2016-03-16T10:27:00.553Z,1019.06
2016-03-16T10:28:00.586Z,1019.08
2016-03-16T10:29:00.605Z,1019.08
2016-03-16T10:30:00.624Z,1019.03
2016-03-16T10:31:00.641Z,1019.01
2016-03-16T10:32:00.660Z,1018.94
2016-03-16T10:33:00.678Z,1018.97
2016-03-16T10:34:00.696Z,1018.91
2016-03-16T10:35:00.715Z,1018.9
2016-03-16T10:36:00.749Z,1018.98
2016-03-16T10:37:00.752Z,1018.92
2016-03-16T10:38:00.785Z,1019
2016-03-16T10:39:00.788Z,1019.04
2016-03-16T10:40:00.821Z,1019.01
2016-03-16T10:41:00.824Z,1019.05
2016-03-16T10:42:00.859Z,1019.03
2016-03-16T10:43:00.876Z,1018.98
2016-03-16T10:44:00.895Z,1019.01
2016-03-16T10:45:00.914Z,1018.99
2016-03-16T10:46:00.931Z,1019.07
2016-03-16T10:47:00.950Z,1019.04
2016-03-16T10:48:00.968Z,1019.01
2016-03-16T10:49:01.003Z,1019.07
2016-03-16T10:50:01.005Z,1019.06
2016-03-16T10:51:01.040Z,1019.11
2016-03-16T10:52:01.058Z,1019.12
2016-03-16T10:53:01.076Z,1019.04
2016-03-16T10:54:01.094Z,1019.09
2016-03-16T10:55:01.112Z,1019.02
2016-03-16T10:56:01.131Z,1019.1
2016-03-16T10:57:01.150Z,1019.09
2016-03-16T10:58:01.167Z,1019.1
2016-03-16T10:59:01.202Z,1019.09
2016-03-16T11:00:01.219Z,1019.1
2016-03-16T11:01:01.239Z,1019.04
2016-03-16T11:02:01.256Z,1019.03
2016-03-16T11:03:01.275Z,1019.08
2016-03-16T11:04:01.294Z,1019.08
2016-03-16T11:05:01.311Z,1019.12
2016-03-16T11:06:01.346Z,1019.09
2016-03-16T11:07:01.363Z,1019.15
2016-03-16T11:08:01.382Z,1019.14
2016-03-16T11:09:01.400Z,1019.05
2016-03-16T11:10:01.419Z,1019
2016-03-16T11:11:01.437Z,1019.07
2016-03-16T11:12:01.471Z,1019.05
2016-03-16T11:13:01.490Z,1019.01
2016-03-16T11:14:01.507Z,1019
2016-03-16T11:15:01.526Z,1019.01
2016-03-16T11:16:01.544Z,1018.98
2016-03-16T11:17:01.563Z,1018.96
2016-03-16T11:18:01.581Z,1018.99
2016-03-16T11:19:01.599Z,1018.99
2016-03-16T11:20:01.634Z,1019.04
2016-03-16T11:21:01.651Z,1019.07
2016-03-16T11:22:01.670Z,1019.04
2016-03-16T11:23:01.687Z,1019.07
2016-03-16T11:24:01.707Z,1019.05
2016-03-16T11:25:01.725Z,1019.06
2016-03-16T11:26:01.758Z,1019.06
2016-03-16T11:27:01.777Z,1019.05
2016-03-16T11:28:01.795Z,1019.04
2016-03-16T11:29:01.814Z,1019.01
2016-03-16T11:30:01.832Z,1019.04
2016-03-16T11:31:01.851Z,1019
2016-03-16T11:32:01.869Z,1019.07
2016-03-16T11:33:01.903Z,1019.04
2016-03-16T11:34:01.921Z,1019.07
2016-03-16T11:35:01.938Z,1019.05
2016-03-16T11:36:01.958Z,1019.05
2016-03-16T11:37:01.991Z,1018.96
2016-03-16T11:38:02.010Z,1018.91
2016-03-16T11:39:02.027Z,1019
2016-03-16T11:40:02.047Z,1018.95
2016-03-16T11:41:02.065Z,1018.96
2016-03-16T11:42:02.082Z,1018.99
2016-03-16T11:43:02.102Z,1018.96
2016-03-16T11:44:02.135Z,1018.91
2016-03-16T11:45:02.216Z,1018.85
2016-03-16T11:46:02.171Z,1018.94
2016-03-16T11:47:02.190Z,1018.9
2016-03-16T11:48:02.209Z,1018.79
2016-03-16T11:49:02.243Z,1018.81
2016-03-16T11:50:02.260Z,1018.89
2016-03-16T11:51:02.279Z,1018.89
2016-03-16T11:52:02.298Z,1018.89
2016-03-16T11:53:02.315Z,1018.86
2016-03-16T11:54:02.334Z,1018.8
2016-03-16T11:55:02.367Z,1018.83
2016-03-16T11:56:02.387Z,1018.74
2016-03-16T11:57:02.404Z,1018.8
2016-03-16T11:58:02.423Z,1018.81
2016-03-16T11:59:02.472Z,1018.79
2016-03-16T12:00:02.475Z,1018.78
2016-03-16T12:01:02.494Z,1018.82
2016-03-16T12:02:02.511Z,1018.8
2016-03-16T12:03:02.530Z,1018.79
2016-03-16T12:04:02.548Z,1018.75
2016-03-16T12:05:02.583Z,1018.74
2016-03-16T12:06:02.600Z,1018.75
2016-03-16T12:07:02.619Z,1018.8
2016-03-16T12:08:02.638Z,1018.76
2016-03-16T12:09:02.671Z,1018.76